createdAt,value
2022-08-17T00:01:56.464Z,21.00
2022-08-17T00:04:49.904Z,21.00
2022-08-17T00:07:38.543Z,20.90
2022-08-17T00:10:27.256Z,21.00
2022-08-17T00:13:17.448Z,20.90
2022-08-17T00:16:09.067Z,20.90
2022-08-17T00:19:07.302Z,20.80
2022-08-17T00:22:31.732Z,20.90
2022-08-17T00:25:12.056Z,20.80
2022-08-17T00:28:00.126Z,20.70
2022-08-17T00:30:52.995Z,20.70
2022-08-17T00:33:45.339Z,20.60
2022-08-17T00:36:33.584Z,20.60
2022-08-17T00:39:21.609Z,20.60
2022-08-17T00:42:14.501Z,20.50
2022-08-17T00:45:04.416Z,20.50
2022-08-17T00:47:52.474Z,20.50
2022-08-17T00:50:54.595Z,20.50
2022-08-17T00:53:46.114Z,20.40
2022-08-17T00:56:39.899Z,20.50
2022-08-17T00:59:31.969Z,20.40
2022-08-17T01:02:20.770Z,20.40
2022-08-17T01:05:11.173Z,20.40
2022-08-17T01:08:02.970Z,20.40
2022-08-17T01:10:57.124Z,20.30
2022-08-17T01:13:49.075Z,20.30
2022-08-17T01:16:38.319Z,20.30
2022-08-17T01:19:28.700Z,20.20
2022-08-17T01:22:21.090Z,20.20
2022-08-17T01:25:10.609Z,20.20
2022-08-17T01:27:58.732Z,20.20
2022-08-17T01:30:58.352Z,20.10
2022-08-17T01:33:47.656Z,20.10
2022-08-17T01:36:36.206Z,20.20
2022-08-17T01:39:31.784Z,20.00
2022-08-17T01:42:24.955Z,20.00
2022-08-17T01:45:16.698Z,20.00
2022-08-17T01:48:05.262Z,20.00
2022-08-17T01:50:53.430Z,20.00
2022-08-17T01:53:45.475Z,20.00
2022-08-17T01:56:37.695Z,20.00
2022-08-17T01:59:25.683Z,20.00
2022-08-17T02:02:31.051Z,19.90
2022-08-17T02:05:20.464Z,19.90
2022-08-17T02:08:08.664Z,19.90
2022-08-17T02:11:11.786Z,19.90
2022-08-17T02:14:04.031Z,19.90
2022-08-17T02:16:52.369Z,19.90
2022-08-17T02:19:40.471Z,19.80
2022-08-17T02:22:29.862Z,19.90
2022-08-17T02:25:21.338Z,19.80
2022-08-17T02:28:09.379Z,19.70
2022-08-17T02:31:04.104Z,19.70
2022-08-17T02:34:00.209Z,19.70
2022-08-17T02:36:53.853Z,19.70
2022-08-17T02:39:41.914Z,19.70
2022-08-17T02:42:33.875Z,19.70
2022-08-17T02:45:24.020Z,19.70
2022-08-17T02:48:13.517Z,19.60
2022-08-17T02:51:02.187Z,19.50
2022-08-17T02:53:52.119Z,19.50
2022-08-17T02:56:40.162Z,19.40
2022-08-17T02:59:28.160Z,19.40
2022-08-17T03:02:16.228Z,19.40
2022-08-17T03:05:06.723Z,19.40
2022-08-17T03:07:56.714Z,19.40
2022-08-17T03:10:45.364Z,19.40
2022-08-17T03:13:34.064Z,19.30
2022-08-17T03:16:22.296Z,19.40
2022-08-17T03:19:10.583Z,19.30
2022-08-17T03:22:00.403Z,19.30
2022-08-17T03:25:11.184Z,19.30
2022-08-17T03:27:59.895Z,19.30
2022-08-17T03:30:48.109Z,19.30
2022-08-17T03:33:36.262Z,19.30
2022-08-17T03:36:24.377Z,19.30
2022-08-17T03:39:13.846Z,19.30
2022-08-17T03:42:07.342Z,19.30
2022-08-17T03:44:57.815Z,19.30
2022-08-17T03:48:03.831Z,19.30
2022-08-17T03:51:14.650Z,19.30
2022-08-17T03:54:20.660Z,19.30
2022-08-17T03:57:12.096Z,19.30
2022-08-17T04:00:00.299Z,19.20
2022-08-17T04:02:48.551Z,19.30
2022-08-17T04:05:36.858Z,19.30
2022-08-17T04:08:25.134Z,19.20
2022-08-17T04:11:13.634Z,19.20
2022-08-17T04:14:03.752Z,19.30
2022-08-17T04:16:51.804Z,19.30
2022-08-17T04:19:40.029Z,19.30
2022-08-17T04:22:30.847Z,19.30
2022-08-17T04:25:21.732Z,19.40
2022-08-17T04:28:15.973Z,19.30
2022-08-17T04:31:06.088Z,19.40
2022-08-17T04:33:55.448Z,19.40
2022-08-17T04:39:38.545Z,19.50
2022-08-17T04:42:25.668Z,19.50
2022-08-17T04:45:13.747Z,19.50
2022-08-17T04:48:04.284Z,19.50
2022-08-17T04:50:52.517Z,19.60
2022-08-17T04:53:41.979Z,19.60
2022-08-17T04:56:31.019Z,19.70
2022-08-17T04:59:21.847Z,19.70
2022-08-17T05:02:09.874Z,19.80
2022-08-17T05:04:59.239Z,19.80
2022-08-17T05:07:48.128Z,19.90
2022-08-17T05:10:45.061Z,20.00
2022-08-17T05:13:33.668Z,20.00
2022-08-17T05:16:22.813Z,20.10
2022-08-17T05:19:10.804Z,20.20
2022-08-17T05:22:00.133Z,20.30
2022-08-17T05:24:53.505Z,20.20
2022-08-17T05:27:42.052Z,20.30
2022-08-17T05:30:32.104Z,20.40
2022-08-17T05:33:22.468Z,20.70
2022-08-17T05:36:43.385Z,20.60
2022-08-17T05:39:22.862Z,20.70
2022-08-17T05:42:10.995Z,20.70
2022-08-17T05:44:59.483Z,20.80
2022-08-17T05:47:48.385Z,20.90
2022-08-17T05:50:49.191Z,21.00
2022-08-17T05:53:45.314Z,21.10
2022-08-17T05:56:53.425Z,21.20
2022-08-17T05:59:53.679Z,21.30
2022-08-17T06:02:54.960Z,21.40
2022-08-17T06:05:55.169Z,21.50
2022-08-17T06:08:51.658Z,21.70
2022-08-17T06:11:48.136Z,21.90
2022-08-17T06:14:54.712Z,22.00
2022-08-17T06:17:44.576Z,22.20
2022-08-17T06:20:43.448Z,22.40
2022-08-17T06:23:37.068Z,22.60
2022-08-17T06:26:37.365Z,22.80
2022-08-17T06:29:39.590Z,23.20
2022-08-17T06:32:27.662Z,23.20
2022-08-17T06:35:19.242Z,23.40
2022-08-17T06:38:37.075Z,23.50
2022-08-17T06:41:31.438Z,23.60
2022-08-17T06:44:43.312Z,23.70
2022-08-17T06:47:37.178Z,23.80
2022-08-17T06:50:32.381Z,24.00
2022-08-17T06:53:25.413Z,24.00
2022-08-17T06:56:22.269Z,24.10
2022-08-17T06:59:15.587Z,24.40
2022-08-17T07:02:07.999Z,24.40
2022-08-17T07:05:01.680Z,24.50
2022-08-17T07:08:04.208Z,24.70
2022-08-17T07:10:56.391Z,24.90
2022-08-17T07:13:51.955Z,25.00
2022-08-17T07:16:44.006Z,25.00
2022-08-17T07:19:35.714Z,25.10
2022-08-17T07:22:54.816Z,25.20
2022-08-17T07:25:41.970Z,25.20
2022-08-17T07:28:32.867Z,25.40
2022-08-17T07:31:20.947Z,25.50
2022-08-17T07:34:14.521Z,25.60
2022-08-17T07:37:05.209Z,25.80
2022-08-17T07:40:15.428Z,26.00
2022-08-17T07:43:23.750Z,26.10
2022-08-17T07:46:35.525Z,26.30
2022-08-17T07:49:34.832Z,26.40
2022-08-17T07:52:50.463Z,26.40
2022-08-17T07:55:41.858Z,26.50
2022-08-17T07:58:29.993Z,26.60
2022-08-17T08:01:18.402Z,26.60
2022-08-17T08:07:42.437Z,26.60
2022-08-17T08:10:35.639Z,26.70
2022-08-17T08:13:27.880Z,26.70
2022-08-17T08:16:25.769Z,26.80
2022-08-17T08:19:20.901Z,26.90
2022-08-17T08:22:13.365Z,27.00
2022-08-17T08:25:14.899Z,27.00
2022-08-17T08:28:15.352Z,27.10
2022-08-17T08:31:10.329Z,27.10
2022-08-17T08:34:53.243Z,27.30
2022-08-17T08:37:39.202Z,27.40
2022-08-17T08:40:51.236Z,27.40
2022-08-17T08:43:52.798Z,27.50
2022-08-17T08:46:51.723Z,27.60
2022-08-17T08:50:03.972Z,27.70
2022-08-17T08:53:14.881Z,27.80
2022-08-17T08:56:07.570Z,27.90
2022-08-17T08:59:03.621Z,27.90
2022-08-17T09:02:03.470Z,27.90
2022-08-17T09:05:14.262Z,28.00
2022-08-17T09:08:11.176Z,28.00
2022-08-17T09:11:05.979Z,28.10
2022-08-17T09:14:02.819Z,28.10
2022-08-17T09:16:58.616Z,28.20
2022-08-17T09:19:52.197Z,28.30
2022-08-17T09:22:44.966Z,28.40
2022-08-17T09:25:35.936Z,28.60
2022-08-17T09:28:31.324Z,28.80
2022-08-17T09:31:23.988Z,29.00
2022-08-17T09:34:18.193Z,29.20
2022-08-17T09:37:19.007Z,29.40
2022-08-17T09:40:14.592Z,29.60
2022-08-17T09:43:10.751Z,29.70
2022-08-17T09:46:03.418Z,29.70
2022-08-17T09:48:57.796Z,29.80
2022-08-17T09:51:53.036Z,30.00
2022-08-17T09:54:42.421Z,30.10
2022-08-17T09:57:55.396Z,30.20
2022-08-17T10:00:53.728Z,30.20
2022-08-17T10:04:08.558Z,30.20
2022-08-17T10:07:03.551Z,30.40
2022-08-17T10:10:00.925Z,30.40
2022-08-17T10:12:56.226Z,30.50
2022-08-17T10:15:52.632Z,30.60
2022-08-17T10:18:52.471Z,30.70
2022-08-17T10:22:32.454Z,30.80
2022-08-17T10:25:53.573Z,30.90
2022-08-17T10:28:47.776Z,30.90
2022-08-17T10:31:41.680Z,31.00
2022-08-17T10:34:50.606Z,31.10
2022-08-17T10:37:56.921Z,31.40
2022-08-17T10:40:51.321Z,31.60
2022-08-17T10:43:57.902Z,31.80
2022-08-17T10:47:07.246Z,32.00
2022-08-17T10:49:56.093Z,32.10
2022-08-17T10:52:50.052Z,32.00
2022-08-17T10:55:41.482Z,31.90
2022-08-17T10:58:46.140Z,31.60
2022-08-17T11:02:00.518Z,31.50
2022-08-17T11:05:01.991Z,31.60
2022-08-17T11:08:07.933Z,31.60
2022-08-17T11:11:12.330Z,31.60
2022-08-17T11:14:14.074Z,31.70
2022-08-17T11:17:18.693Z,31.80
2022-08-17T11:20:21.866Z,31.90
2022-08-17T11:23:30.551Z,31.90
2022-08-17T11:26:29.596Z,32.00
2022-08-17T11:29:24.715Z,32.00
2022-08-17T11:32:31.066Z,32.20
2022-08-17T11:35:34.689Z,32.40
2022-08-17T11:38:32.137Z,32.50
2022-08-17T11:41:27.353Z,32.50
2022-08-17T11:44:43.439Z,32.50
2022-08-17T11:48:23.637Z,32.50
2022-08-17T11:51:30.030Z,32.40
2022-08-17T11:54:37.502Z,32.30
2022-08-17T11:58:05.519Z,32.20
2022-08-17T12:00:58.585Z,32.20
2022-08-17T12:03:54.038Z,32.30
2022-08-17T12:06:49.147Z,32.50
2022-08-17T12:09:42.085Z,32.60
2022-08-17T12:12:35.416Z,32.50
2022-08-17T12:15:36.101Z,32.60
2022-08-17T12:18:28.841Z,32.70
2022-08-17T12:21:37.352Z,32.80
2022-08-17T12:24:36.486Z,32.90
2022-08-17T12:27:46.253Z,33.20
2022-08-17T12:30:38.408Z,33.40
2022-08-17T12:33:28.904Z,33.70
2022-08-17T12:36:21.533Z,34.10
2022-08-17T12:39:14.228Z,34.30
2022-08-17T12:42:23.096Z,34.60
2022-08-17T12:45:23.694Z,34.70
2022-08-17T12:48:14.574Z,34.70
2022-08-17T12:51:07.753Z,34.60
2022-08-17T12:53:56.655Z,34.60
2022-08-17T12:56:47.672Z,34.60
2022-08-17T12:59:40.616Z,34.70
2022-08-17T13:02:39.981Z,34.60
2022-08-17T13:05:30.867Z,34.70
2022-08-17T13:08:24.016Z,34.60
2022-08-17T13:11:24.743Z,35.00
2022-08-17T13:14:12.835Z,35.10
2022-08-17T13:17:08.392Z,34.90
2022-08-17T13:19:59.727Z,34.40
2022-08-17T13:22:54.372Z,34.30
2022-08-17T13:25:53.665Z,34.20
2022-08-17T13:28:48.740Z,34.40
2022-08-17T13:31:52.889Z,34.60
2022-08-17T13:35:12.131Z,35.50
2022-08-17T13:38:02.280Z,36.60
2022-08-17T13:40:53.558Z,37.10
2022-08-17T13:43:45.519Z,36.80
2022-08-17T13:46:34.387Z,36.30
2022-08-17T13:49:22.786Z,36.30
2022-08-17T13:52:33.824Z,37.30
2022-08-17T13:55:23.605Z,38.00
2022-08-17T13:58:13.037Z,38.00
2022-08-17T14:01:28.336Z,38.60
2022-08-17T14:04:21.003Z,38.90
2022-08-17T14:07:28.046Z,39.00
2022-08-17T14:10:18.837Z,39.00
2022-08-17T14:13:08.583Z,39.40
2022-08-17T14:15:57.891Z,40.60
2022-08-17T14:18:57.042Z,41.00
2022-08-17T14:21:47.148Z,41.10
2022-08-17T14:24:44.673Z,40.60
2022-08-17T14:27:41.581Z,40.00
2022-08-17T14:30:42.291Z,38.70
2022-08-17T14:33:31.698Z,38.50
2022-08-17T14:36:19.810Z,38.70
2022-08-17T14:39:07.853Z,38.90
2022-08-17T14:41:57.850Z,39.30
2022-08-17T14:44:45.963Z,40.20
2022-08-17T14:47:34.618Z,40.60
2022-08-17T14:50:23.973Z,40.00
2022-08-17T14:53:15.503Z,39.40
2022-08-17T14:56:03.975Z,39.00
2022-08-17T14:58:52.765Z,39.10
2022-08-17T15:01:40.812Z,39.40
2022-08-17T15:04:29.021Z,40.30
2022-08-17T15:07:20.225Z,40.20
2022-08-17T15:10:15.553Z,39.10
2022-08-17T15:13:03.657Z,38.20
2022-08-17T15:15:52.141Z,37.40
2022-08-17T15:18:40.929Z,36.80
2022-08-17T15:21:29.028Z,36.50
2022-08-17T15:24:18.413Z,36.30
2022-08-17T15:27:06.666Z,36.10
2022-08-17T15:29:54.690Z,35.90
2022-08-17T15:32:51.480Z,35.90
2022-08-17T15:35:43.100Z,36.10
2022-08-17T15:38:39.110Z,36.00
2022-08-17T15:41:29.380Z,36.20
2022-08-17T15:44:17.387Z,36.90
2022-08-17T15:47:05.579Z,37.90
2022-08-17T15:49:59.458Z,38.50
2022-08-17T15:52:48.139Z,40.20
2022-08-17T15:55:38.280Z,41.90
2022-08-17T15:58:29.911Z,42.60
2022-08-17T16:02:15.416Z,41.50
2022-08-17T16:04:32.184Z,40.00
2022-08-17T16:07:26.441Z,38.30
2022-08-17T16:10:19.057Z,37.00
2022-08-17T16:13:17.972Z,36.80
2022-08-17T16:16:08.299Z,36.40
2022-08-17T16:18:58.907Z,36.30
2022-08-17T16:21:47.424Z,37.40
2022-08-17T16:24:37.125Z,38.80
2022-08-17T16:27:25.176Z,38.90
2022-08-17T16:30:17.529Z,38.90
2022-08-17T16:33:07.705Z,39.10
2022-08-17T16:35:55.699Z,39.80
2022-08-17T16:38:44.481Z,39.30
2022-08-17T16:41:45.077Z,38.00
2022-08-17T16:44:33.529Z,37.20
2022-08-17T16:47:22.557Z,36.50
2022-08-17T16:50:15.260Z,35.90
2022-08-17T16:53:06.463Z,36.00
2022-08-17T16:55:56.324Z,37.00
2022-08-17T16:58:44.351Z,38.10
2022-08-17T17:01:33.798Z,38.80
2022-08-17T17:04:21.884Z,39.00
2022-08-17T17:07:38.213Z,39.20
2022-08-17T17:10:33.432Z,39.40
2022-08-17T17:13:27.415Z,39.00
2022-08-17T17:16:21.492Z,38.10
2022-08-17T17:19:12.752Z,38.00
2022-08-17T17:22:09.194Z,37.50
2022-08-17T17:25:11.079Z,37.50
2022-08-17T17:28:05.184Z,37.80
2022-08-17T17:31:04.411Z,38.30
2022-08-17T17:33:56.711Z,38.30
2022-08-17T17:36:50.157Z,38.50
2022-08-17T17:39:43.777Z,38.50
2022-08-17T17:42:34.195Z,37.90
2022-08-17T17:45:25.953Z,36.90
2022-08-17T17:48:14.021Z,35.80
2022-08-17T17:51:11.604Z,34.50
2022-08-17T17:54:07.601Z,34.00
2022-08-17T17:57:08.321Z,33.40
2022-08-17T18:00:06.048Z,32.50
2022-08-17T18:03:08.916Z,32.40
2022-08-17T18:06:14.920Z,32.10
2022-08-17T18:09:10.284Z,31.70
2022-08-17T18:12:10.662Z,31.30
2022-08-17T18:15:16.070Z,30.90
2022-08-17T18:18:37.569Z,30.60
2022-08-17T18:21:39.505Z,30.30
2022-08-17T18:24:32.566Z,30.00
2022-08-17T18:27:24.636Z,29.70
2022-08-17T18:30:28.810Z,29.30
2022-08-17T18:33:24.597Z,29.10
2022-08-17T18:36:13.367Z,28.90
2022-08-17T18:39:12.303Z,28.60
2022-08-17T18:42:03.240Z,28.50
2022-08-17T18:44:54.922Z,28.20
2022-08-17T18:47:56.861Z,28.00
2022-08-17T18:50:44.983Z,27.80
2022-08-17T18:53:39.052Z,27.70
2022-08-17T18:56:30.993Z,27.60
2022-08-17T18:59:29.205Z,27.40
2022-08-17T19:02:44.772Z,27.30
2022-08-17T19:05:38.841Z,27.20
2022-08-17T19:08:35.270Z,27.10
2022-08-17T19:11:29.541Z,27.00
2022-08-17T19:14:29.495Z,26.80
2022-08-17T19:17:25.447Z,26.70
2022-08-17T19:20:19.695Z,26.70
2022-08-17T19:23:14.876Z,26.60
2022-08-17T19:26:50.782Z,26.40
2022-08-17T19:29:22.236Z,26.40
2022-08-17T19:32:12.173Z,26.30
2022-08-17T19:35:01.700Z,26.20
2022-08-17T19:38:03.107Z,26.10
2022-08-17T19:41:02.643Z,26.10
2022-08-17T19:44:06.959Z,26.00
2022-08-17T19:47:02.841Z,25.90
2022-08-17T19:50:04.071Z,25.90
2022-08-17T19:52:58.820Z,25.80
2022-08-17T19:55:54.915Z,25.70
2022-08-17T19:58:57.444Z,25.70
2022-08-17T20:01:51.489Z,25.60
2022-08-17T20:04:43.548Z,25.50
2022-08-17T20:07:43.068Z,25.50
2022-08-17T20:10:41.792Z,25.40
2022-08-17T20:13:36.087Z,25.30
2022-08-17T20:16:25.869Z,25.30
2022-08-17T20:19:22.569Z,25.20
2022-08-17T20:22:12.664Z,25.10
2022-08-17T20:25:07.835Z,25.10
2022-08-17T20:28:06.020Z,25.00
2022-08-17T20:30:54.803Z,25.00
2022-08-17T20:33:44.248Z,25.00
2022-08-17T20:36:36.821Z,24.90
2022-08-17T20:39:34.791Z,24.80
2022-08-17T20:42:34.479Z,24.80
2022-08-17T20:46:00.195Z,24.90
2022-08-17T20:48:52.627Z,24.70
2022-08-17T20:52:00.745Z,24.70
2022-08-17T20:54:52.330Z,24.70
2022-08-17T20:57:49.628Z,24.70
2022-08-17T21:00:42.987Z,24.70
2022-08-17T21:03:52.248Z,24.70
2022-08-17T21:07:17.206Z,24.60
2022-08-17T21:10:14.833Z,24.50
2022-08-17T21:13:27.933Z,24.60
2022-08-17T21:16:33.515Z,24.60
2022-08-17T21:19:54.235Z,24.50
2022-08-17T21:22:58.496Z,24.60
2022-08-17T21:26:03.346Z,24.50
2022-08-17T21:29:30.268Z,24.60
2022-08-17T21:32:24.221Z,24.60
2022-08-17T21:35:28.759Z,24.50
2022-08-17T21:38:19.779Z,24.50
2022-08-17T21:41:18.440Z,24.50
2022-08-17T21:44:14.497Z,24.50
2022-08-17T21:47:20.235Z,24.50
2022-08-17T21:50:18.691Z,24.50
2022-08-17T21:53:09.705Z,24.50
2022-08-17T21:55:57.736Z,24.40
2022-08-17T21:58:48.698Z,24.40
2022-08-17T22:01:39.888Z,24.40
2022-08-17T22:04:31.256Z,24.40
2022-08-17T22:07:36.213Z,24.30
2022-08-17T22:10:35.005Z,24.20
2022-08-17T22:13:29.390Z,24.40
2022-08-17T22:16:28.354Z,24.30
2022-08-17T22:19:18.722Z,24.30
2022-08-17T22:22:09.940Z,24.30
2022-08-17T22:25:01.393Z,24.40
2022-08-17T22:27:57.311Z,24.40
2022-08-17T22:31:01.858Z,24.40
2022-08-17T22:33:52.388Z,24.40
2022-08-17T22:36:42.370Z,24.40
2022-08-17T22:39:41.445Z,24.40
2022-08-17T22:42:29.548Z,24.40
2022-08-17T22:45:18.968Z,24.30
2022-08-17T22:48:07.160Z,24.30
2022-08-17T22:51:12.665Z,24.40
2022-08-17T22:54:21.949Z,24.30
2022-08-17T22:57:32.166Z,24.30
2022-08-17T23:00:37.336Z,24.20
2022-08-17T23:03:27.898Z,24.20
2022-08-17T23:06:15.981Z,24.10
2022-08-17T23:09:05.798Z,24.10
2022-08-17T23:11:58.548Z,24.00
2022-08-17T23:14:49.336Z,24.00
2022-08-17T23:17:39.409Z,23.90
2022-08-17T23:20:27.413Z,23.70
2022-08-17T23:23:15.865Z,23.80
2022-08-17T23:26:03.924Z,23.80
2022-08-17T23:28:51.944Z,23.70
2022-08-17T23:31:40.818Z,23.70
2022-08-17T23:34:30.226Z,23.60
2022-08-17T23:37:19.943Z,23.60
2022-08-17T23:40:09.190Z,23.50
2022-08-17T23:42:57.248Z,23.50
2022-08-17T23:45:47.089Z,23.40
2022-08-17T23:48:37.318Z,23.40
2022-08-17T23:51:29.919Z,23.40
2022-08-17T23:54:24.063Z,23.30
2022-08-17T23:57:13.924Z,23.30
